sensor_id;sensor_type;location;lat;lon;timestamp;temperature;humidity
52107;DHT22;38105;52.968;5.974;2023-04-24T00:01:28;10.60;99.90
52107;DHT22;38105;52.968;5.974;2023-04-24T00:03:55;10.90;99.90
52107;DHT22;38105;52.968;5.974;2023-04-24T00:06:25;11.00;99.90
52107;DHT22;38105;52.968;5.974;2023-04-24T00:08:59;11.00;99.90
52107;DHT22;38105;52.968;5.974;2023-04-24T00:11:26;11.00;99.90
52107;DHT22;38105;52.968;5.974;2023-04-24T00:13:52;10.80;99.90
52107;DHT22;38105;52.968;5.974;2023-04-24T00:16:18;10.40;99.90
52107;DHT22;38105;52.968;5.974;2023-04-24T00:18:43;10.80;99.90
52107;DHT22;38105;52.968;5.974;2023-04-24T00:21:10;10.80;99.90
52107;DHT22;38105;52.968;5.974;2023-04-24T00:23:36;10.90;99.90
52107;DHT22;38105;52.968;5.974;2023-04-24T00:26:02;10.60;99.90
52107;DHT22;38105;52.968;5.974;2023-04-24T00:28:28;10.30;99.90
52107;DHT22;38105;52.968;5.974;2023-04-24T00:30:53;10.80;99.90
52107;DHT22;38105;52.968;5.974;2023-04-24T00:33:19;10.20;99.90
52107;DHT22;38105;52.968;5.974;2023-04-24T00:35:45;10.20;99.90
52107;DHT22;38105;52.968;5.974;2023-04-24T00:38:11;10.10;99.90
52107;DHT22;38105;52.968;5.974;2023-04-24T00:40:37;10.10;99.90
52107;DHT22;38105;52.968;5.974;2023-04-24T00:43:02;10.70;99.90
52107;DHT22;38105;52.968;5.974;2023-04-24T00:45:28;10.60;99.90
52107;DHT22;38105;52.968;5.974;2023-04-24T00:47:56;10.40;99.90
52107;DHT22;38105;52.968;5.974;2023-04-24T00:50:23;10.00;99.90
52107;DHT22;38105;52.968;5.974;2023-04-24T00:52:49;10.40;99.90
52107;DHT22;38105;52.968;5.974;2023-04-24T00:55:16;9.90;99.90
52107;DHT22;38105;52.968;5.974;2023-04-24T00:57:42;10.50;99.90
52107;DHT22;38105;52.968;5.974;2023-04-24T01:00:08;10.00;99.90
52107;DHT22;38105;52.968;5.974;2023-04-24T01:02:41;10.60;99.90
52107;DHT22;38105;52.968;5.974;2023-04-24T01:05:13;10.40;99.90
52107;DHT22;38105;52.968;5.974;2023-04-24T01:07:41;10.10;99.90
52107;DHT22;38105;52.968;5.974;2023-04-24T01:10:10;9.90;99.90
52107;DHT22;38105;52.968;5.974;2023-04-24T01:12:37;10.50;99.90
52107;DHT22;38105;52.968;5.974;2023-04-24T01:15:03;10.50;99.90
52107;DHT22;38105;52.968;5.974;2023-04-24T01:17:29;10.50;99.90
52107;DHT22;38105;52.968;5.974;2023-04-24T01:19:55;9.90;99.90
52107;DHT22;38105;52.968;5.974;2023-04-24T01:22:22;10.20;99.90
52107;DHT22;38105;52.968;5.974;2023-04-24T01:24:48;10.00;99.90
52107;DHT22;38105;52.968;5.974;2023-04-24T01:27:15;9.90;99.90
52107;DHT22;38105;52.968;5.974;2023-04-24T01:29:40;10.60;99.90
52107;DHT22;38105;52.968;5.974;2023-04-24T01:32:06;9.90;99.90
52107;DHT22;38105;52.968;5.974;2023-04-24T01:34:33;10.10;99.90
52107;DHT22;38105;52.968;5.974;2023-04-24T01:36:59;10.60;99.90
52107;DHT22;38105;52.968;5.974;2023-04-24T01:39:26;10.00;99.90
52107;DHT22;38105;52.968;5.974;2023-04-24T01:41:54;9.90;99.90
52107;DHT22;38105;52.968;5.974;2023-04-24T01:44:20;10.50;99.90
52107;DHT22;38105;52.968;5.974;2023-04-24T01:46:46;10.40;99.90
52107;DHT22;38105;52.968;5.974;2023-04-24T01:49:12;10.60;99.90
52107;DHT22;38105;52.968;5.974;2023-04-24T01:51:38;10.20;99.90
52107;DHT22;38105;52.968;5.974;2023-04-24T01:54:03;10.30;99.90
52107;DHT22;38105;52.968;5.974;2023-04-24T01:56:29;9.90;99.90
52107;DHT22;38105;52.968;5.974;2023-04-24T01:58:56;10.00;99.90
52107;DHT22;38105;52.968;5.974;2023-04-24T02:01:24;10.10;99.90
52107;DHT22;38105;52.968;5.974;2023-04-24T02:03:50;9.90;99.90
52107;DHT22;38105;52.968;5.974;2023-04-24T02:06:16;9.90;99.90
52107;DHT22;38105;52.968;5.974;2023-04-24T02:08:42;10.40;99.90
52107;DHT22;38105;52.968;5.974;2023-04-24T02:11:10;10.60;99.90
52107;DHT22;38105;52.968;5.974;2023-04-24T02:13:36;10.20;99.90
52107;DHT22;38105;52.968;5.974;2023-04-24T02:16:02;10.60;99.90
52107;DHT22;38105;52.968;5.974;2023-04-24T02:18:27;10.20;99.90
52107;DHT22;38105;52.968;5.974;2023-04-24T02:20:53;10.60;99.90
52107;DHT22;38105;52.968;5.974;2023-04-24T02:23:19;10.30;99.90
52107;DHT22;38105;52.968;5.974;2023-04-24T02:25:45;9.90;99.90
52107;DHT22;38105;52.968;5.974;2023-04-24T02:28:11;10.50;99.90
52107;DHT22;38105;52.968;5.974;2023-04-24T02:30:36;10.50;99.90
52107;DHT22;38105;52.968;5.974;2023-04-24T02:33:02;10.50;99.90
52107;DHT22;38105;52.968;5.974;2023-04-24T02:35:28;9.90;99.90
52107;DHT22;38105;52.968;5.974;2023-04-24T02:37:54;10.00;99.90
52107;DHT22;38105;52.968;5.974;2023-04-24T02:40:20;10.00;99.90
52107;DHT22;38105;52.968;5.974;2023-04-24T02:42:45;10.20;99.90
52107;DHT22;38105;52.968;5.974;2023-04-24T02:45:11;10.00;99.90
52107;DHT22;38105;52.968;5.974;2023-04-24T02:47:37;10.20;99.90
52107;DHT22;38105;52.968;5.974;2023-04-24T02:50:03;10.00;99.90
52107;DHT22;38105;52.968;5.974;2023-04-24T02:52:28;10.00;99.90
52107;DHT22;38105;52.968;5.974;2023-04-24T02:54:54;10.00;99.90
52107;DHT22;38105;52.968;5.974;2023-04-24T02:57:20;10.50;99.90
52107;DHT22;38105;52.968;5.974;2023-04-24T02:59:46;10.70;99.90
52107;DHT22;38105;52.968;5.974;2023-04-24T03:02:11;10.60;99.90
52107;DHT22;38105;52.968;5.974;2023-04-24T03:04:37;10.50;99.90
52107;DHT22;38105;52.968;5.974;2023-04-24T03:07:03;10.10;99.90
52107;DHT22;38105;52.968;5.974;2023-04-24T03:09:30;10.80;99.90
52107;DHT22;38105;52.968;5.974;2023-04-24T03:11:55;10.50;99.90
52107;DHT22;38105;52.968;5.974;2023-04-24T03:14:21;10.60;99.90
52107;DHT22;38105;52.968;5.974;2023-04-24T03:16:47;10.10;99.90
52107;DHT22;38105;52.968;5.974;2023-04-24T03:19:13;10.10;99.90
52107;DHT22;38105;52.968;5.974;2023-04-24T03:21:39;10.30;99.90
52107;DHT22;38105;52.968;5.974;2023-04-24T03:24:10;10.70;99.90
52107;DHT22;38105;52.968;5.974;2023-04-24T03:26:35;10.60;99.90
52107;DHT22;38105;52.968;5.974;2023-04-24T03:29:01;10.20;99.90
52107;DHT22;38105;52.968;5.974;2023-04-24T03:31:27;10.20;99.90
52107;DHT22;38105;52.968;5.974;2023-04-24T03:33:52;10.50;99.90
52107;DHT22;38105;52.968;5.974;2023-04-24T03:36:18;10.20;99.90
52107;DHT22;38105;52.968;5.974;2023-04-24T03:38:44;10.30;99.90
52107;DHT22;38105;52.968;5.974;2023-04-24T03:41:10;10.20;99.90
52107;DHT22;38105;52.968;5.974;2023-04-24T03:43:37;10.70;99.90
52107;DHT22;38105;52.968;5.974;2023-04-24T03:46:02;10.70;99.90
52107;DHT22;38105;52.968;5.974;2023-04-24T03:48:28;10.20;99.90
52107;DHT22;38105;52.968;5.974;2023-04-24T03:50:54;10.30;99.90
52107;DHT22;38105;52.968;5.974;2023-04-24T03:53:19;10.60;99.90
52107;DHT22;38105;52.968;5.974;2023-04-24T03:55:45;10.70;99.90
52107;DHT22;38105;52.968;5.974;2023-04-24T03:58:11;10.70;99.90
52107;DHT22;38105;52.968;5.974;2023-04-24T04:00:38;10.20;99.90
52107;DHT22;38105;52.968;5.974;2023-04-24T04:03:06;10.70;99.90
52107;DHT22;38105;52.968;5.974;2023-04-24T04:05:31;10.10;99.90
52107;DHT22;38105;52.968;5.974;2023-04-24T04:07:57;10.70;99.90
52107;DHT22;38105;52.968;5.974;2023-04-24T04:10:23;10.10;99.90
52107;DHT22;38105;52.968;5.974;2023-04-24T04:12:48;10.00;99.90
52107;DHT22;38105;52.968;5.974;2023-04-24T04:15:14;10.10;99.90
52107;DHT22;38105;52.968;5.974;2023-04-24T04:17:40;10.60;99.90
52107;DHT22;38105;52.968;5.974;2023-04-24T04:20:06;10.60;99.90
52107;DHT22;38105;52.968;5.974;2023-04-24T04:22:36;10.00;99.90
52107;DHT22;38105;52.968;5.974;2023-04-24T04:25:03;10.10;99.90
52107;DHT22;38105;52.968;5.974;2023-04-24T04:27:28;10.50;99.90
52107;DHT22;38105;52.968;5.974;2023-04-24T04:29:58;10.50;99.90
52107;DHT22;38105;52.968;5.974;2023-04-24T04:32:26;9.90;99.90
52107;DHT22;38105;52.968;5.974;2023-04-24T04:34:52;10.20;99.90
52107;DHT22;38105;52.968;5.974;2023-04-24T04:37:18;9.80;99.90
52107;DHT22;38105;52.968;5.974;2023-04-24T04:39:44;10.00;99.90
52107;DHT22;38105;52.968;5.974;2023-04-24T04:42:10;10.10;99.90
52107;DHT22;38105;52.968;5.974;2023-04-24T04:44:35;9.80;99.90
52107;DHT22;38105;52.968;5.974;2023-04-24T04:47:01;10.40;99.90
52107;DHT22;38105;52.968;5.974;2023-04-24T04:49:31;9.80;99.90
52107;DHT22;38105;52.968;5.974;2023-04-24T04:51:57;10.40;99.90
52107;DHT22;38105;52.968;5.974;2023-04-24T04:54:23;9.90;99.90
52107;DHT22;38105;52.968;5.974;2023-04-24T04:56:52;10.00;99.90
52107;DHT22;38105;52.968;5.974;2023-04-24T04:59:17;9.90;99.90
52107;DHT22;38105;52.968;5.974;2023-04-24T05:01:43;10.30;99.90
52107;DHT22;38105;52.968;5.974;2023-04-24T05:04:09;9.90;99.90
52107;DHT22;38105;52.968;5.974;2023-04-24T05:06:34;10.10;99.90
52107;DHT22;38105;52.968;5.974;2023-04-24T05:09:00;9.90;99.90
52107;DHT22;38105;52.968;5.974;2023-04-24T05:11:26;9.80;99.90
52107;DHT22;38105;52.968;5.974;2023-04-24T05:13:51;10.10;99.90
52107;DHT22;38105;52.968;5.974;2023-04-24T05:16:17;9.80;99.90
52107;DHT22;38105;52.968;5.974;2023-04-24T05:18:43;10.30;99.90
52107;DHT22;38105;52.968;5.974;2023-04-24T05:21:08;9.90;99.90
52107;DHT22;38105;52.968;5.974;2023-04-24T05:23:34;9.90;99.90
52107;DHT22;38105;52.968;5.974;2023-04-24T05:25:59;9.90;99.90
52107;DHT22;38105;52.968;5.974;2023-04-24T05:28:25;9.90;99.90
52107;DHT22;38105;52.968;5.974;2023-04-24T05:30:54;10.10;99.90
52107;DHT22;38105;52.968;5.974;2023-04-24T05:33:21;10.20;99.90
52107;DHT22;38105;52.968;5.974;2023-04-24T05:35:48;10.10;99.90
52107;DHT22;38105;52.968;5.974;2023-04-24T05:38:13;10.20;99.90
52107;DHT22;38105;52.968;5.974;2023-04-24T05:40:40;9.90;99.90
52107;DHT22;38105;52.968;5.974;2023-04-24T05:43:05;10.20;99.90
52107;DHT22;38105;52.968;5.974;2023-04-24T05:45:31;10.20;99.90
52107;DHT22;38105;52.968;5.974;2023-04-24T05:47:57;10.20;99.90
52107;DHT22;38105;52.968;5.974;2023-04-24T05:50:22;10.00;99.90
52107;DHT22;38105;52.968;5.974;2023-04-24T05:52:48;10.00;99.90
52107;DHT22;38105;52.968;5.974;2023-04-24T05:55:14;10.30;99.90
52107;DHT22;38105;52.968;5.974;2023-04-24T05:57:42;9.90;99.90
52107;DHT22;38105;52.968;5.974;2023-04-24T06:00:09;9.90;99.90
52107;DHT22;38105;52.968;5.974;2023-04-24T06:02:37;10.20;99.90
52107;DHT22;38105;52.968;5.974;2023-04-24T06:05:04;9.80;99.90
52107;DHT22;38105;52.968;5.974;2023-04-24T06:07:30;9.80;99.90
52107;DHT22;38105;52.968;5.974;2023-04-24T06:09:56;9.80;99.90
52107;DHT22;38105;52.968;5.974;2023-04-24T06:12:22;9.80;99.90
52107;DHT22;38105;52.968;5.974;2023-04-24T06:14:48;10.20;99.90
52107;DHT22;38105;52.968;5.974;2023-04-24T06:17:15;10.20;99.90
52107;DHT22;38105;52.968;5.974;2023-04-24T06:19:40;9.90;99.90
52107;DHT22;38105;52.968;5.974;2023-04-24T06:22:06;9.90;99.90
52107;DHT22;38105;52.968;5.974;2023-04-24T06:24:34;10.20;99.90
52107;DHT22;38105;52.968;5.974;2023-04-24T06:27:00;10.00;99.90
52107;DHT22;38105;52.968;5.974;2023-04-24T06:29:27;9.90;99.90
52107;DHT22;38105;52.968;5.974;2023-04-24T06:31:52;9.90;99.90
52107;DHT22;38105;52.968;5.974;2023-04-24T06:34:18;10.10;99.90
52107;DHT22;38105;52.968;5.974;2023-04-24T06:36:44;10.00;99.90
52107;DHT22;38105;52.968;5.974;2023-04-24T06:39:10;9.90;99.90
52107;DHT22;38105;52.968;5.974;2023-04-24T06:41:35;10.20;99.90
52107;DHT22;38105;52.968;5.974;2023-04-24T06:44:01;10.20;99.90
52107;DHT22;38105;52.968;5.974;2023-04-24T06:46:27;10.20;99.90
52107;DHT22;38105;52.968;5.974;2023-04-24T06:48:56;10.30;99.90
52107;DHT22;38105;52.968;5.974;2023-04-24T06:51:23;10.00;99.90
52107;DHT22;38105;52.968;5.974;2023-04-24T06:53:49;10.30;99.90
52107;DHT22;38105;52.968;5.974;2023-04-24T06:56:15;10.30;99.90
52107;DHT22;38105;52.968;5.974;2023-04-24T06:58:41;9.90;99.90
52107;DHT22;38105;52.968;5.974;2023-04-24T07:01:07;10.00;99.90
52107;DHT22;38105;52.968;5.974;2023-04-24T07:03:33;10.00;99.90
52107;DHT22;38105;52.968;5.974;2023-04-24T07:05:58;10.00;99.90
52107;DHT22;38105;52.968;5.974;2023-04-24T07:08:24;9.90;99.90
52107;DHT22;38105;52.968;5.974;2023-04-24T07:10:51;9.90;99.90
52107;DHT22;38105;52.968;5.974;2023-04-24T07:13:16;9.70;99.90
52107;DHT22;38105;52.968;5.974;2023-04-24T07:15:43;9.60;99.90
52107;DHT22;38105;52.968;5.974;2023-04-24T07:18:08;9.80;99.90
52107;DHT22;38105;52.968;5.974;2023-04-24T07:20:34;9.40;99.90
52107;DHT22;38105;52.968;5.974;2023-04-24T07:23:00;9.80;99.90
52107;DHT22;38105;52.968;5.974;2023-04-24T07:25:26;9.70;99.90
52107;DHT22;38105;52.968;5.974;2023-04-24T07:27:53;9.40;99.90
52107;DHT22;38105;52.968;5.974;2023-04-24T07:30:19;9.40;99.90
52107;DHT22;38105;52.968;5.974;2023-04-24T07:32:45;9.60;99.90
52107;DHT22;38105;52.968;5.974;2023-04-24T07:35:10;9.50;99.90
52107;DHT22;38105;52.968;5.974;2023-04-24T07:37:36;9.70;99.90
52107;DHT22;38105;52.968;5.974;2023-04-24T07:40:02;9.50;99.90
52107;DHT22;38105;52.968;5.974;2023-04-24T07:42:28;9.40;99.90
52107;DHT22;38105;52.968;5.974;2023-04-24T07:44:55;9.60;99.90
52107;DHT22;38105;52.968;5.974;2023-04-24T07:47:21;9.40;99.90
52107;DHT22;38105;52.968;5.974;2023-04-24T07:49:47;9.50;99.90
52107;DHT22;38105;52.968;5.974;2023-04-24T07:52:12;9.60;99.90
52107;DHT22;38105;52.968;5.974;2023-04-24T07:54:38;9.50;99.90
52107;DHT22;38105;52.968;5.974;2023-04-24T07:57:04;9.50;99.90
52107;DHT22;38105;52.968;5.974;2023-04-24T07:59:31;9.40;99.90
52107;DHT22;38105;52.968;5.974;2023-04-24T08:01:57;9.20;99.90
52107;DHT22;38105;52.968;5.974;2023-04-24T08:04:23;9.40;99.90
52107;DHT22;38105;52.968;5.974;2023-04-24T08:06:49;9.30;99.90
52107;DHT22;38105;52.968;5.974;2023-04-24T08:09:16;9.30;99.90
52107;DHT22;38105;52.968;5.974;2023-04-24T08:11:41;9.40;99.90
52107;DHT22;38105;52.968;5.974;2023-04-24T08:14:07;9.40;99.90
52107;DHT22;38105;52.968;5.974;2023-04-24T08:16:33;9.40;99.90
52107;DHT22;38105;52.968;5.974;2023-04-24T08:18:58;9.30;99.90
52107;DHT22;38105;52.968;5.974;2023-04-24T08:21:24;9.50;99.90
52107;DHT22;38105;52.968;5.974;2023-04-24T08:23:51;9.50;99.90
52107;DHT22;38105;52.968;5.974;2023-04-24T08:26:17;9.50;99.90
52107;DHT22;38105;52.968;5.974;2023-04-24T08:28:42;9.70;99.90
52107;DHT22;38105;52.968;5.974;2023-04-24T08:31:08;9.60;99.90
52107;DHT22;38105;52.968;5.974;2023-04-24T08:33:34;9.60;99.90
52107;DHT22;38105;52.968;5.974;2023-04-24T08:36:04;9.60;99.90
52107;DHT22;38105;52.968;5.974;2023-04-24T08:38:30;9.60;99.90
52107;DHT22;38105;52.968;5.974;2023-04-24T08:41:00;9.40;99.90
52107;DHT22;38105;52.968;5.974;2023-04-24T08:43:27;9.40;99.90
52107;DHT22;38105;52.968;5.974;2023-04-24T08:45:55;9.40;99.90
52107;DHT22;38105;52.968;5.974;2023-04-24T08:48:22;9.40;99.90
52107;DHT22;38105;52.968;5.974;2023-04-24T08:50:51;9.30;99.90
52107;DHT22;38105;52.968;5.974;2023-04-24T08:53:18;9.60;99.90
52107;DHT22;38105;52.968;5.974;2023-04-24T08:55:46;9.40;99.90
52107;DHT22;38105;52.968;5.974;2023-04-24T08:58:13;9.60;99.90
52107;DHT22;38105;52.968;5.974;2023-04-24T09:00:39;9.50;99.90
52107;DHT22;38105;52.968;5.974;2023-04-24T09:03:06;9.60;99.90
52107;DHT22;38105;52.968;5.974;2023-04-24T09:05:32;9.70;99.90
52107;DHT22;38105;52.968;5.974;2023-04-24T09:07:59;9.80;99.90
52107;DHT22;38105;52.968;5.974;2023-04-24T09:10:27;9.90;99.90
52107;DHT22;38105;52.968;5.974;2023-04-24T09:12:56;10.00;99.90
52107;DHT22;38105;52.968;5.974;2023-04-24T09:15:24;10.10;99.90
52107;DHT22;38105;52.968;5.974;2023-04-24T09:17:50;10.20;99.90
52107;DHT22;38105;52.968;5.974;2023-04-24T09:20:16;10.20;99.90
52107;DHT22;38105;52.968;5.974;2023-04-24T09:22:42;10.30;99.90
52107;DHT22;38105;52.968;5.974;2023-04-24T09:25:09;10.20;99.90
52107;DHT22;38105;52.968;5.974;2023-04-24T09:27:42;10.30;99.90
52107;DHT22;38105;52.968;5.974;2023-04-24T09:30:09;10.20;99.90
52107;DHT22;38105;52.968;5.974;2023-04-24T09:32:35;10.10;99.90
52107;DHT22;38105;52.968;5.974;2023-04-24T09:35:19;9.90;99.90
52107;DHT22;38105;52.968;5.974;2023-04-24T09:37:46;9.80;99.90
52107;DHT22;38105;52.968;5.974;2023-04-24T09:42:44;9.70;99.90
52107;DHT22;38105;52.968;5.974;2023-04-24T09:45:11;9.80;99.90
52107;DHT22;38105;52.968;5.974;2023-04-24T09:47:38;9.70;99.90
52107;DHT22;38105;52.968;5.974;2023-04-24T09:50:15;9.70;99.90
52107;DHT22;38105;52.968;5.974;2023-04-24T09:52:46;9.80;99.90
52107;DHT22;38105;52.968;5.974;2023-04-24T09:55:16;9.70;99.90
52107;DHT22;38105;52.968;5.974;2023-04-24T09:57:49;9.60;99.90
52107;DHT22;38105;52.968;5.974;2023-04-24T10:02:50;9.70;99.90
52107;DHT22;38105;52.968;5.974;2023-04-24T10:05:16;9.70;99.90
52107;DHT22;38105;52.968;5.974;2023-04-24T10:07:43;9.70;99.90
52107;DHT22;38105;52.968;5.974;2023-04-24T10:10:09;9.70;99.90
52107;DHT22;38105;52.968;5.974;2023-04-24T10:12:35;9.80;99.90
52107;DHT22;38105;52.968;5.974;2023-04-24T10:15:01;9.90;99.90
52107;DHT22;38105;52.968;5.974;2023-04-24T10:17:28;10.00;99.90
52107;DHT22;38105;52.968;5.974;2023-04-24T10:19:55;10.00;99.90
52107;DHT22;38105;52.968;5.974;2023-04-24T10:22:21;10.10;99.90
52107;DHT22;38105;52.968;5.974;2023-04-24T10:24:49;9.90;99.90
52107;DHT22;38105;52.968;5.974;2023-04-24T10:27:16;9.90;99.90
52107;DHT22;38105;52.968;5.974;2023-04-24T10:29:43;9.80;99.90
52107;DHT22;38105;52.968;5.974;2023-04-24T10:32:10;9.90;99.90
52107;DHT22;38105;52.968;5.974;2023-04-24T10:34:36;9.80;99.90
52107;DHT22;38105;52.968;5.974;2023-04-24T10:37:02;9.70;99.90
52107;DHT22;38105;52.968;5.974;2023-04-24T10:39:28;9.90;99.90
52107;DHT22;38105;52.968;5.974;2023-04-24T10:41:56;9.90;99.90
52107;DHT22;38105;52.968;5.974;2023-04-24T10:44:23;9.90;99.90
52107;DHT22;38105;52.968;5.974;2023-04-24T10:46:54;10.00;99.90
52107;DHT22;38105;52.968;5.974;2023-04-24T10:49:29;10.00;99.90
52107;DHT22;38105;52.968;5.974;2023-04-24T10:52:01;10.20;99.90
52107;DHT22;38105;52.968;5.974;2023-04-24T10:54:41;10.30;99.90
52107;DHT22;38105;52.968;5.974;2023-04-24T10:59:45;10.50;99.90
52107;DHT22;38105;52.968;5.974;2023-04-24T11:02:14;10.60;99.90
52107;DHT22;38105;52.968;5.974;2023-04-24T11:04:40;10.70;99.90
52107;DHT22;38105;52.968;5.974;2023-04-24T11:07:09;10.70;99.90
52107;DHT22;38105;52.968;5.974;2023-04-24T11:09:35;10.60;99.90
52107;DHT22;38105;52.968;5.974;2023-04-24T11:12:09;10.40;99.90
52107;DHT22;38105;52.968;5.974;2023-04-24T11:17:31;10.20;99.90
52107;DHT22;38105;52.968;5.974;2023-04-24T11:20:06;10.20;99.90
52107;DHT22;38105;52.968;5.974;2023-04-24T11:22:33;10.20;99.90
52107;DHT22;38105;52.968;5.974;2023-04-24T11:25:00;10.30;99.90
52107;DHT22;38105;52.968;5.974;2023-04-24T11:27:47;10.40;99.90
52107;DHT22;38105;52.968;5.974;2023-04-24T11:30:19;10.50;99.90
52107;DHT22;38105;52.968;5.974;2023-04-24T11:32:50;10.50;99.90
52107;DHT22;38105;52.968;5.974;2023-04-24T11:35:21;10.50;99.90
52107;DHT22;38105;52.968;5.974;2023-04-24T11:37:52;10.60;99.90
52107;DHT22;38105;52.968;5.974;2023-04-24T11:40:20;10.80;99.90
52107;DHT22;38105;52.968;5.974;2023-04-24T11:42:49;11.00;99.90
52107;DHT22;38105;52.968;5.974;2023-04-24T11:45:23;11.10;99.90
52107;DHT22;38105;52.968;5.974;2023-04-24T11:47:49;11.30;99.90
52107;DHT22;38105;52.968;5.974;2023-04-24T11:50:17;11.30;99.90
52107;DHT22;38105;52.968;5.974;2023-04-24T11:52:45;11.30;99.90
52107;DHT22;38105;52.968;5.974;2023-04-24T11:57:42;11.60;99.90
52107;DHT22;38105;52.968;5.974;2023-04-24T12:00:16;11.70;99.90
52107;DHT22;38105;52.968;5.974;2023-04-24T12:02:42;11.80;99.90
52107;DHT22;38105;52.968;5.974;2023-04-24T12:05:08;11.70;99.90
52107;DHT22;38105;52.968;5.974;2023-04-24T12:07:41;11.70;99.90
52107;DHT22;38105;52.968;5.974;2023-04-24T12:10:10;11.50;99.90
52107;DHT22;38105;52.968;5.974;2023-04-24T12:12:36;11.40;99.90
52107;DHT22;38105;52.968;5.974;2023-04-24T12:15:07;11.30;99.90
52107;DHT22;38105;52.968;5.974;2023-04-24T12:17:34;11.20;99.90
52107;DHT22;38105;52.968;5.974;2023-04-24T12:20:00;11.00;99.90
52107;DHT22;38105;52.968;5.974;2023-04-24T12:22:57;10.90;99.90
52107;DHT22;38105;52.968;5.974;2023-04-24T12:25:25;10.80;99.90
52107;DHT22;38105;52.968;5.974;2023-04-24T12:30:31;10.90;99.90
52107;DHT22;38105;52.968;5.974;2023-04-24T12:32:59;11.10;99.90
52107;DHT22;38105;52.968;5.974;2023-04-24T12:35:27;11.20;99.90
52107;DHT22;38105;52.968;5.974;2023-04-24T12:37:53;11.20;99.90
52107;DHT22;38105;52.968;5.974;2023-04-24T12:40:21;11.20;99.90
52107;DHT22;38105;52.968;5.974;2023-04-24T12:42:48;11.10;99.90
52107;DHT22;38105;52.968;5.974;2023-04-24T12:45:15;11.10;99.90
52107;DHT22;38105;52.968;5.974;2023-04-24T12:47:42;11.20;99.90
52107;DHT22;38105;52.968;5.974;2023-04-24T12:50:09;11.00;99.90
52107;DHT22;38105;52.968;5.974;2023-04-24T12:52:36;10.90;99.90
52107;DHT22;38105;52.968;5.974;2023-04-24T12:55:02;10.70;99.90
52107;DHT22;38105;52.968;5.974;2023-04-24T12:57:29;10.60;99.90
52107;DHT22;38105;52.968;5.974;2023-04-24T12:59:56;10.40;99.90
52107;DHT22;38105;52.968;5.974;2023-04-24T13:02:23;10.40;99.90
52107;DHT22;38105;52.968;5.974;2023-04-24T13:04:50;10.30;99.90
52107;DHT22;38105;52.968;5.974;2023-04-24T13:07:16;10.30;99.90
52107;DHT22;38105;52.968;5.974;2023-04-24T13:09:43;10.30;99.90
52107;DHT22;38105;52.968;5.974;2023-04-24T13:12:09;10.30;99.90
52107;DHT22;38105;52.968;5.974;2023-04-24T13:14:35;10.40;99.90
52107;DHT22;38105;52.968;5.974;2023-04-24T13:17:01;10.60;99.90
52107;DHT22;38105;52.968;5.974;2023-04-24T13:19:27;10.50;99.90
52107;DHT22;38105;52.968;5.974;2023-04-24T13:21:54;10.60;99.90
52107;DHT22;38105;52.968;5.974;2023-04-24T13:24:21;10.70;99.90
52107;DHT22;38105;52.968;5.974;2023-04-24T13:26:50;10.80;99.90
52107;DHT22;38105;52.968;5.974;2023-04-24T13:29:17;10.70;99.90
52107;DHT22;38105;52.968;5.974;2023-04-24T13:31:43;10.70;99.90
52107;DHT22;38105;52.968;5.974;2023-04-24T13:34:08;10.80;99.90
52107;DHT22;38105;52.968;5.974;2023-04-24T13:36:34;10.80;99.90
52107;DHT22;38105;52.968;5.974;2023-04-24T13:39:00;10.90;99.90
52107;DHT22;38105;52.968;5.974;2023-04-24T13:41:26;10.80;99.90
52107;DHT22;38105;52.968;5.974;2023-04-24T13:43:52;10.60;99.90
52107;DHT22;38105;52.968;5.974;2023-04-24T13:46:17;10.70;99.90
52107;DHT22;38105;52.968;5.974;2023-04-24T13:48:43;10.50;99.90
52107;DHT22;38105;52.968;5.974;2023-04-24T13:51:09;10.40;99.90
52107;DHT22;38105;52.968;5.974;2023-04-24T13:53:35;10.40;99.90
52107;DHT22;38105;52.968;5.974;2023-04-24T13:56:04;10.20;99.90
52107;DHT22;38105;52.968;5.974;2023-04-24T13:58:29;10.20;99.90
52107;DHT22;38105;52.968;5.974;2023-04-24T14:00:55;10.20;99.90
52107;DHT22;38105;52.968;5.974;2023-04-24T14:03:21;10.20;99.90
52107;DHT22;38105;52.968;5.974;2023-04-24T14:05:46;10.30;99.90
52107;DHT22;38105;52.968;5.974;2023-04-24T14:08:12;10.40;99.90
52107;DHT22;38105;52.968;5.974;2023-04-24T14:10:42;10.40;99.90
52107;DHT22;38105;52.968;5.974;2023-04-24T14:13:08;10.30;99.90
52107;DHT22;38105;52.968;5.974;2023-04-24T14:15:39;10.30;99.90
52107;DHT22;38105;52.968;5.974;2023-04-24T14:18:05;10.20;99.90
52107;DHT22;38105;52.968;5.974;2023-04-24T14:20:30;10.20;99.90
52107;DHT22;38105;52.968;5.974;2023-04-24T14:22:56;10.10;99.90
52107;DHT22;38105;52.968;5.974;2023-04-24T14:25:25;10.10;99.90
52107;DHT22;38105;52.968;5.974;2023-04-24T14:27:53;10.00;99.90
52107;DHT22;38105;52.968;5.974;2023-04-24T14:30:30;10.10;99.90
52107;DHT22;38105;52.968;5.974;2023-04-24T14:33:12;9.90;99.90
52107;DHT22;38105;52.968;5.974;2023-04-24T14:35:39;10.00;99.90
52107;DHT22;38105;52.968;5.974;2023-04-24T14:38:05;10.10;99.90
52107;DHT22;38105;52.968;5.974;2023-04-24T14:40:35;10.20;99.90
52107;DHT22;38105;52.968;5.974;2023-04-24T14:43:00;10.30;99.90
52107;DHT22;38105;52.968;5.974;2023-04-24T14:45:27;10.20;99.90
52107;DHT22;38105;52.968;5.974;2023-04-24T14:47:53;10.30;99.90
52107;DHT22;38105;52.968;5.974;2023-04-24T14:50:19;10.10;99.90
52107;DHT22;38105;52.968;5.974;2023-04-24T14:52:45;10.10;99.90
52107;DHT22;38105;52.968;5.974;2023-04-24T14:55:12;10.10;99.90
52107;DHT22;38105;52.968;5.974;2023-04-24T14:57:37;10.10;99.90
52107;DHT22;38105;52.968;5.974;2023-04-24T15:00:05;10.20;99.90
52107;DHT22;38105;52.968;5.974;2023-04-24T15:02:34;10.40;99.90
52107;DHT22;38105;52.968;5.974;2023-04-24T15:05:02;10.40;99.90
52107;DHT22;38105;52.968;5.974;2023-04-24T15:07:28;10.40;99.90
52107;DHT22;38105;52.968;5.974;2023-04-24T15:09:54;10.30;99.90
52107;DHT22;38105;52.968;5.974;2023-04-24T15:12:20;10.30;99.90
52107;DHT22;38105;52.968;5.974;2023-04-24T15:14:46;10.10;99.90
52107;DHT22;38105;52.968;5.974;2023-04-24T15:17:12;10.00;99.90
52107;DHT22;38105;52.968;5.974;2023-04-24T15:19:37;10.00;99.90
52107;DHT22;38105;52.968;5.974;2023-04-24T15:22:03;10.00;99.90
52107;DHT22;38105;52.968;5.974;2023-04-24T15:24:29;9.90;99.90
52107;DHT22;38105;52.968;5.974;2023-04-24T15:26:58;9.90;99.90
52107;DHT22;38105;52.968;5.974;2023-04-24T15:29:24;9.80;99.90
52107;DHT22;38105;52.968;5.974;2023-04-24T15:31:51;9.90;99.90
52107;DHT22;38105;52.968;5.974;2023-04-24T15:34:17;9.90;99.90
52107;DHT22;38105;52.968;5.974;2023-04-24T15:36:43;9.80;99.90
52107;DHT22;38105;52.968;5.974;2023-04-24T15:39:08;9.90;99.90
52107;DHT22;38105;52.968;5.974;2023-04-24T15:41:35;9.70;99.90
52107;DHT22;38105;52.968;5.974;2023-04-24T15:44:00;9.70;99.90
52107;DHT22;38105;52.968;5.974;2023-04-24T15:46:32;9.70;99.90
52107;DHT22;38105;52.968;5.974;2023-04-24T15:48:59;9.70;99.90